• 10:15 – Планы по выпуску МС-21 есть, но желающих его покупать пока нет 
  • 10:39 – Рейсы Cofrance Sarl самолетом Ил-76 - безальтернативный путь доставки товаров из Китая в Европу 
  • 00:47 – HIA раскрывает планы дальнейшего развития 

Град повредил самолеты в Стамбуле

 27 июня в окрестностях Стамбула в Турции прошла сильная гроза с градом и мощным ураганом. Природное явление длилось в 14:40 до 15:30 по среднеевропейскому времени и им было повреждено несколько воздушных судов.

 

Одним из них было B738 принадлежащий авиакомпании Pegasus (бортовой № TC-AHP), который должен был совершить рейс PC909 из аэропорта им. Сабихи Гёкчен. (SAW/LTFJ) в Вену (VIE/LOWW). После взлета самолет вошел в область неблагоприятных условий, где градом был поврежден его нос и передняя кромка крыльев. В результате экипаж принял решение вернуться в аэропорт.

 

Кроме самолета авиакомпании Pegasus во время урагана и града пострадали A320 AtlasGlobal Ukraine, A321 Turkish Airlines, а также B747-400F Kalitta Air.

 

 

LTBA 271450Z 01023G35KT 9999 -TSRA SCT021CB BKN033CB 27/21 Q0998 NOSIG RMK RWY17L 02024G35KT 350V050 RWY05 36022KT RWY23 02023G33KT
LTBA 271500Z 28024G45KT 250V330 1600 + TSRA SCT019CB BKN032 26/20 Q1002 NOSIG
LTBA 271520Z 32021G34KT 290V350 3600-TSRA SCT016CB BKN026 20/20 Q1003 RETSGRRA BECMG TL1600 9999 NSW
LTBA 271534Z 34017KT 6000 -TSRA FEW020CB BKN035 21/20 Q1002 BECMG TL1600 NSW RMK RWY17L ///// KT RWY05 33018KT RWY23 34016KT 310V020
LTBA 271550Z 34021KT 9999 -SHRA FEW020CB BKN030 22/20 Q1002 RETSRA NOSIG RMK RWY17L 35016KT RWY05 33019KT RWY23 34016KT
LTBA 271620Z 30016KT 7000 FEW014 SCT025CB BKN080 22/20 Q1004 RESHRA NOSIG RMK RWY17L 31015KT RWY05 29015KT RWY23 31015KT 290V350


Узнавайте новости первыми!
Введите необходимые данные, чтобы не пропустить ничего интересного:
Ваш E-mail в безопасности
Вся отправленная нам информация, не разглашается третьим лицам!



Аренда частного самолета

Аренда самолета

Отслеживание груза онлайн


  • Сегодня
  • Читаемое

Мы в соцсетях
  • Вконтакте
  • Facebook
  • OK.ru

Авиация в современном мире


Авиация – масштабная тема, которой интересуются как люди, профессионально занятые в этой сфере, так и обычные туристы. Новости авиации интересуют путешественников, собирающихся в поездку, людей, следящих за современными разработками в данной отрасли, а также читателей широкого круга, которым не безразлично, что происходит в современном мире.


Новости авиации сегодня


В Сети существует множество порталов, на которых публикуются новости авиа сегодня. Но именно на Aircargonews вы найдете максимально подробное освещение событий в области частной, грузовой авиации, рассказы о последних происшествиях. Особое внимание портал уделяет новостям гражданской авиации, которые по традиции вызывают повышенный интерес. Авторы статей Aircargonews одними из первых отзываются на все события в данной сфере, руководствуясь правилом, что новости бывают только свежими.


Если вас интересует авиация грузовая, о событиях в этой области вы также сможете прочитать на данном сайте. Обзоры самых известных грузовых самолетов, новости систем управления грузами, интересные сведения о перевозках в разных странах, – информацию обо всем этом вы найдете на Aircargonews.


Авиа новости – это интересно


Читать новости авиации – это актуально, познавательно и просто интересно. На сайте опубликованы не только деловые материалы, но и развлекательные статьи, которые понравятся даже читателям, далеким от темы авиации.


Кроме того, в разделе «Отчеты» размещаются статистические данные о работе аэропортов и авиаперевозчиков. Такие материалы всегда востребованы у специалистов узкого профиля.


Все статьи написаны легким языком, понятным широкому кругу читателей. Для портала пишут журналисты из разных стран бывшего СССР, что делает публикуемые материалы уникальными и разнообразными.


Не маловажно и то, что с помощью сервисов сайта вы можете заказать авиабилет в любую точку мира, забронировать номер в отеле или арендовать жилье, заказать трансфер. Комплексные туристические услуги и интересное чтение – то, чем портал Aircargonews готов радовать вас каждый день.


Читайте новости авиации сегодня на нашем портале и будьте в курсе всех значительных событий, происходящих в мире!